sensor_id;sensor_type;location;lat;lon;timestamp;temperature;humidity
73643;DHT22;61938;48.652;9.292;2023-11-21T00:02:12;8.00;99.90
73643;DHT22;61938;48.652;9.292;2023-11-21T00:04:37;8.00;99.90
73643;DHT22;61938;48.652;9.292;2023-11-21T00:07:03;8.00;99.90
73643;DHT22;61938;48.652;9.292;2023-11-21T00:09:28;8.00;99.90
73643;DHT22;61938;48.652;9.292;2023-11-21T00:11:54;8.00;99.90
73643;DHT22;61938;48.652;9.292;2023-11-21T00:14:19;8.00;99.90
73643;DHT22;61938;48.652;9.292;2023-11-21T00:16:45;8.00;99.90
73643;DHT22;61938;48.652;9.292;2023-11-21T00:19:11;8.00;99.90
73643;DHT22;61938;48.652;9.292;2023-11-21T00:21:37;8.00;99.90
73643;DHT22;61938;48.652;9.292;2023-11-21T00:24:02;7.90;99.90
73643;DHT22;61938;48.652;9.292;2023-11-21T00:26:28;8.00;99.90
73643;DHT22;61938;48.652;9.292;2023-11-21T00:28:54;8.00;99.90
73643;DHT22;61938;48.652;9.292;2023-11-21T00:31:20;8.00;99.90
73643;DHT22;61938;48.652;9.292;2023-11-21T00:33:45;8.00;99.90
73643;DHT22;61938;48.652;9.292;2023-11-21T00:36:11;8.00;99.90
73643;DHT22;61938;48.652;9.292;2023-11-21T00:38:36;8.00;99.90
73643;DHT22;61938;48.652;9.292;2023-11-21T00:41:05;8.00;99.90
73643;DHT22;61938;48.652;9.292;2023-11-21T00:43:31;8.00;99.90
73643;DHT22;61938;48.652;9.292;2023-11-21T00:45:58;8.00;99.90
73643;DHT22;61938;48.652;9.292;2023-11-21T00:48:24;8.00;99.90
73643;DHT22;61938;48.652;9.292;2023-11-21T00:50:49;8.00;99.90
73643;DHT22;61938;48.652;9.292;2023-11-21T00:53:15;8.00;99.90
73643;DHT22;61938;48.652;9.292;2023-11-21T00:55:41;7.90;99.90
73643;DHT22;61938;48.652;9.292;2023-11-21T00:58:06;7.90;99.90
73643;DHT22;61938;48.652;9.292;2023-11-21T01:00:33;7.90;99.90
73643;DHT22;61938;48.652;9.292;2023-11-21T01:02:59;8.00;99.90
73643;DHT22;61938;48.652;9.292;2023-11-21T01:05:25;8.00;99.90
73643;DHT22;61938;48.652;9.292;2023-11-21T01:07:50;7.90;99.90
73643;DHT22;61938;48.652;9.292;2023-11-21T01:10:16;7.90;99.90
73643;DHT22;61938;48.652;9.292;2023-11-21T01:12:42;7.90;99.90
73643;DHT22;61938;48.652;9.292;2023-11-21T01:15:08;7.90;99.90
73643;DHT22;61938;48.652;9.292;2023-11-21T01:17:34;7.90;99.90
73643;DHT22;61938;48.652;9.292;2023-11-21T01:20:01;7.90;99.90
73643;DHT22;61938;48.652;9.292;2023-11-21T01:22:27;7.90;99.90
73643;DHT22;61938;48.652;9.292;2023-11-21T01:24:53;7.90;99.90
73643;DHT22;61938;48.652;9.292;2023-11-21T01:27:19;7.90;99.90
73643;DHT22;61938;48.652;9.292;2023-11-21T01:29:44;7.90;99.90
73643;DHT22;61938;48.652;9.292;2023-11-21T01:32:10;7.90;99.90
73643;DHT22;61938;48.652;9.292;2023-11-21T01:34:36;7.90;99.90
73643;DHT22;61938;48.652;9.292;2023-11-21T01:37:02;7.90;99.90
73643;DHT22;61938;48.652;9.292;2023-11-21T01:39:30;7.90;99.90
73643;DHT22;61938;48.652;9.292;2023-11-21T01:41:55;7.90;99.90
73643;DHT22;61938;48.652;9.292;2023-11-21T01:44:24;7.90;99.90
73643;DHT22;61938;48.652;9.292;2023-11-21T01:46:50;7.90;99.90
73643;DHT22;61938;48.652;9.292;2023-11-21T01:49:16;8.00;99.90
73643;DHT22;61938;48.652;9.292;2023-11-21T01:51:44;7.90;99.90
73643;DHT22;61938;48.652;9.292;2023-11-21T01:54:12;7.90;99.90
73643;DHT22;61938;48.652;9.292;2023-11-21T01:56:37;8.00;99.90
73643;DHT22;61938;48.652;9.292;2023-11-21T01:59:04;7.90;99.90
73643;DHT22;61938;48.652;9.292;2023-11-21T02:01:30;7.90;99.90
73643;DHT22;61938;48.652;9.292;2023-11-21T02:03:56;7.90;99.90
73643;DHT22;61938;48.652;9.292;2023-11-21T02:06:21;7.90;99.90
73643;DHT22;61938;48.652;9.292;2023-11-21T02:08:47;7.90;99.90
73643;DHT22;61938;48.652;9.292;2023-11-21T02:11:13;7.90;99.90
73643;DHT22;61938;48.652;9.292;2023-11-21T02:13:39;7.90;99.90
73643;DHT22;61938;48.652;9.292;2023-11-21T02:16:09;7.90;99.90
73643;DHT22;61938;48.652;9.292;2023-11-21T02:18:35;7.90;99.90
73643;DHT22;61938;48.652;9.292;2023-11-21T02:21:04;7.90;99.90
73643;DHT22;61938;48.652;9.292;2023-11-21T02:23:29;7.90;99.90
73643;DHT22;61938;48.652;9.292;2023-11-21T02:25:55;7.90;99.90
73643;DHT22;61938;48.652;9.292;2023-11-21T02:28:20;7.90;99.90
73643;DHT22;61938;48.652;9.292;2023-11-21T02:30:51;7.90;99.90
73643;DHT22;61938;48.652;9.292;2023-11-21T02:33:21;7.90;99.90
73643;DHT22;61938;48.652;9.292;2023-11-21T02:35:46;7.90;99.90
73643;DHT22;61938;48.652;9.292;2023-11-21T02:38:12;7.90;99.90
73643;DHT22;61938;48.652;9.292;2023-11-21T02:40:37;7.90;99.90
73643;DHT22;61938;48.652;9.292;2023-11-21T02:43:03;7.90;99.90
73643;DHT22;61938;48.652;9.292;2023-11-21T02:45:31;7.90;99.90
73643;DHT22;61938;48.652;9.292;2023-11-21T02:47:57;7.90;99.90
73643;DHT22;61938;48.652;9.292;2023-11-21T02:50:22;7.90;99.90
73643;DHT22;61938;48.652;9.292;2023-11-21T02:52:48;7.80;99.90
73643;DHT22;61938;48.652;9.292;2023-11-21T02:55:13;7.80;99.90
73643;DHT22;61938;48.652;9.292;2023-11-21T02:57:39;7.70;99.90
73643;DHT22;61938;48.652;9.292;2023-11-21T03:00:05;7.70;99.90
73643;DHT22;61938;48.652;9.292;2023-11-21T03:02:33;7.70;99.90
73643;DHT22;61938;48.652;9.292;2023-11-21T03:04:58;7.70;99.90
73643;DHT22;61938;48.652;9.292;2023-11-21T03:07:24;7.70;99.90
73643;DHT22;61938;48.652;9.292;2023-11-21T03:09:50;7.70;99.90
73643;DHT22;61938;48.652;9.292;2023-11-21T03:12:15;7.80;99.90
73643;DHT22;61938;48.652;9.292;2023-11-21T03:14:41;7.70;99.90
73643;DHT22;61938;48.652;9.292;2023-11-21T03:17:07;7.70;99.90
73643;DHT22;61938;48.652;9.292;2023-11-21T03:19:32;7.70;99.90
73643;DHT22;61938;48.652;9.292;2023-11-21T03:21:58;7.70;99.90
73643;DHT22;61938;48.652;9.292;2023-11-21T03:24:24;7.70;99.90
73643;DHT22;61938;48.652;9.292;2023-11-21T03:26:50;7.70;99.90
73643;DHT22;61938;48.652;9.292;2023-11-21T03:29:16;7.70;99.90
73643;DHT22;61938;48.652;9.292;2023-11-21T03:31:41;7.70;99.90
73643;DHT22;61938;48.652;9.292;2023-11-21T03:34:14;7.70;99.90
73643;DHT22;61938;48.652;9.292;2023-11-21T03:36:40;7.70;99.90
73643;DHT22;61938;48.652;9.292;2023-11-21T03:39:05;7.70;99.90
73643;DHT22;61938;48.652;9.292;2023-11-21T03:41:31;7.70;99.90
73643;DHT22;61938;48.652;9.292;2023-11-21T03:43:56;7.70;99.90
73643;DHT22;61938;48.652;9.292;2023-11-21T03:46:22;7.70;99.90
73643;DHT22;61938;48.652;9.292;2023-11-21T03:48:47;7.70;99.90
73643;DHT22;61938;48.652;9.292;2023-11-21T03:51:13;7.60;99.90
73643;DHT22;61938;48.652;9.292;2023-11-21T03:53:38;7.60;99.90
73643;DHT22;61938;48.652;9.292;2023-11-21T03:56:04;7.60;99.90
73643;DHT22;61938;48.652;9.292;2023-11-21T03:58:29;7.60;99.90
73643;DHT22;61938;48.652;9.292;2023-11-21T04:00:55;7.60;99.90
73643;DHT22;61938;48.652;9.292;2023-11-21T04:03:20;7.60;99.90
73643;DHT22;61938;48.652;9.292;2023-11-21T04:05:46;7.60;99.90
73643;DHT22;61938;48.652;9.292;2023-11-21T04:08:12;7.60;99.90
73643;DHT22;61938;48.652;9.292;2023-11-21T04:10:38;7.60;99.90
73643;DHT22;61938;48.652;9.292;2023-11-21T04:13:05;7.60;99.90
73643;DHT22;61938;48.652;9.292;2023-11-21T04:15:32;7.60;99.90
73643;DHT22;61938;48.652;9.292;2023-11-21T04:17:57;7.60;99.90
73643;DHT22;61938;48.652;9.292;2023-11-21T04:20:24;7.50;99.90
73643;DHT22;61938;48.652;9.292;2023-11-21T04:22:49;7.50;99.90
73643;DHT22;61938;48.652;9.292;2023-11-21T04:25:15;7.60;99.90
73643;DHT22;61938;48.652;9.292;2023-11-21T04:27:41;7.60;99.90
73643;DHT22;61938;48.652;9.292;2023-11-21T04:30:09;7.60;99.90
73643;DHT22;61938;48.652;9.292;2023-11-21T04:32:35;7.60;99.90
73643;DHT22;61938;48.652;9.292;2023-11-21T04:35:01;7.50;99.90
73643;DHT22;61938;48.652;9.292;2023-11-21T04:37:27;7.60;99.90
73643;DHT22;61938;48.652;9.292;2023-11-21T04:39:52;7.60;99.90
73643;DHT22;61938;48.652;9.292;2023-11-21T04:42:18;7.50;99.90
73643;DHT22;61938;48.652;9.292;2023-11-21T04:44:43;7.60;99.90
73643;DHT22;61938;48.652;9.292;2023-11-21T04:47:10;7.60;99.90
73643;DHT22;61938;48.652;9.292;2023-11-21T04:49:35;7.60;99.90
73643;DHT22;61938;48.652;9.292;2023-11-21T04:52:01;7.60;99.90
73643;DHT22;61938;48.652;9.292;2023-11-21T04:54:30;7.60;99.90
73643;DHT22;61938;48.652;9.292;2023-11-21T04:56:55;7.60;99.90
73643;DHT22;61938;48.652;9.292;2023-11-21T04:59:21;7.60;99.90
73643;DHT22;61938;48.652;9.292;2023-11-21T05:01:50;7.60;99.90
73643;DHT22;61938;48.652;9.292;2023-11-21T05:04:15;7.60;99.90
73643;DHT22;61938;48.652;9.292;2023-11-21T05:06:41;7.60;99.90
73643;DHT22;61938;48.652;9.292;2023-11-21T05:09:06;7.60;99.90
73643;DHT22;61938;48.652;9.292;2023-11-21T05:11:37;7.60;99.90
73643;DHT22;61938;48.652;9.292;2023-11-21T05:14:03;7.60;99.90
73643;DHT22;61938;48.652;9.292;2023-11-21T05:16:29;7.60;99.90
73643;DHT22;61938;48.652;9.292;2023-11-21T05:18:55;7.60;99.90
73643;DHT22;61938;48.652;9.292;2023-11-21T05:21:26;7.60;99.90
73643;DHT22;61938;48.652;9.292;2023-11-21T05:23:51;7.60;99.90
73643;DHT22;61938;48.652;9.292;2023-11-21T05:26:17;7.60;99.90
73643;DHT22;61938;48.652;9.292;2023-11-21T05:28:42;7.60;99.90
73643;DHT22;61938;48.652;9.292;2023-11-21T05:31:08;7.60;99.90
73643;DHT22;61938;48.652;9.292;2023-11-21T05:33:33;7.60;99.90
73643;DHT22;61938;48.652;9.292;2023-11-21T05:35:59;7.70;99.90
73643;DHT22;61938;48.652;9.292;2023-11-21T05:38:24;7.60;99.90
73643;DHT22;61938;48.652;9.292;2023-11-21T05:40:49;7.60;99.90
73643;DHT22;61938;48.652;9.292;2023-11-21T05:43:15;7.60;99.90
73643;DHT22;61938;48.652;9.292;2023-11-21T05:45:41;7.60;99.90
73643;DHT22;61938;48.652;9.292;2023-11-21T05:48:06;7.60;99.90
73643;DHT22;61938;48.652;9.292;2023-11-21T05:50:32;7.60;99.90
73643;DHT22;61938;48.652;9.292;2023-11-21T05:52:58;7.60;99.90
73643;DHT22;61938;48.652;9.292;2023-11-21T05:55:25;7.60;99.90
73643;DHT22;61938;48.652;9.292;2023-11-21T05:57:51;7.60;99.90
73643;DHT22;61938;48.652;9.292;2023-11-21T06:00:17;7.60;99.90
73643;DHT22;61938;48.652;9.292;2023-11-21T06:02:51;7.50;99.90
73643;DHT22;61938;48.652;9.292;2023-11-21T06:05:18;7.60;99.90
73643;DHT22;61938;48.652;9.292;2023-11-21T06:07:44;7.60;99.90
73643;DHT22;61938;48.652;9.292;2023-11-21T06:10:11;7.50;99.90
73643;DHT22;61938;48.652;9.292;2023-11-21T06:12:40;7.50;99.90
73643;DHT22;61938;48.652;9.292;2023-11-21T06:15:09;7.50;99.90
73643;DHT22;61938;48.652;9.292;2023-11-21T06:17:35;7.60;99.90
73643;DHT22;61938;48.652;9.292;2023-11-21T06:20:05;7.50;99.90
73643;DHT22;61938;48.652;9.292;2023-11-21T06:22:38;7.60;99.90
73643;DHT22;61938;48.652;9.292;2023-11-21T06:25:05;7.60;99.90
73643;DHT22;61938;48.652;9.292;2023-11-21T06:27:37;7.60;99.90
73643;DHT22;61938;48.652;9.292;2023-11-21T06:30:02;7.60;99.90
73643;DHT22;61938;48.652;9.292;2023-11-21T06:32:29;7.60;99.90
73643;DHT22;61938;48.652;9.292;2023-11-21T06:34:55;7.60;99.90
73643;DHT22;61938;48.652;9.292;2023-11-21T06:37:21;7.50;99.90
73643;DHT22;61938;48.652;9.292;2023-11-21T06:39:49;7.60;99.90
73643;DHT22;61938;48.652;9.292;2023-11-21T06:42:14;7.60;99.90
73643;DHT22;61938;48.652;9.292;2023-11-21T06:44:40;7.60;99.90
73643;DHT22;61938;48.652;9.292;2023-11-21T06:47:07;7.60;99.90
73643;DHT22;61938;48.652;9.292;2023-11-21T06:49:32;7.60;99.90
73643;DHT22;61938;48.652;9.292;2023-11-21T06:51:58;7.60;99.90
73643;DHT22;61938;48.652;9.292;2023-11-21T06:54:24;7.60;99.90
73643;DHT22;61938;48.652;9.292;2023-11-21T06:56:50;7.60;99.90
73643;DHT22;61938;48.652;9.292;2023-11-21T06:59:15;7.60;99.90
73643;DHT22;61938;48.652;9.292;2023-11-21T07:01:41;7.60;99.90
73643;DHT22;61938;48.652;9.292;2023-11-21T07:04:07;7.60;99.90
73643;DHT22;61938;48.652;9.292;2023-11-21T07:06:34;7.60;99.90
73643;DHT22;61938;48.652;9.292;2023-11-21T07:09:00;7.60;99.90
73643;DHT22;61938;48.652;9.292;2023-11-21T07:11:27;7.60;99.90
73643;DHT22;61938;48.652;9.292;2023-11-21T07:13:52;7.60;99.90
73643;DHT22;61938;48.652;9.292;2023-11-21T07:16:18;7.60;99.90
73643;DHT22;61938;48.652;9.292;2023-11-21T07:18:44;7.60;99.90
73643;DHT22;61938;48.652;9.292;2023-11-21T07:21:10;7.60;99.90
73643;DHT22;61938;48.652;9.292;2023-11-21T07:23:37;7.70;99.90
73643;DHT22;61938;48.652;9.292;2023-11-21T07:26:03;7.60;99.90
73643;DHT22;61938;48.652;9.292;2023-11-21T07:28:34;7.60;99.90
73643;DHT22;61938;48.652;9.292;2023-11-21T07:30:59;7.60;99.90
73643;DHT22;61938;48.652;9.292;2023-11-21T07:33:25;7.70;99.90
73643;DHT22;61938;48.652;9.292;2023-11-21T07:35:51;7.70;99.90
73643;DHT22;61938;48.652;9.292;2023-11-21T07:38:17;7.70;99.90
73643;DHT22;61938;48.652;9.292;2023-11-21T07:40:43;7.70;99.90
73643;DHT22;61938;48.652;9.292;2023-11-21T07:43:08;7.70;99.90
73643;DHT22;61938;48.652;9.292;2023-11-21T07:45:34;7.70;99.90
73643;DHT22;61938;48.652;9.292;2023-11-21T07:47:59;7.70;99.90
73643;DHT22;61938;48.652;9.292;2023-11-21T07:50:28;7.70;99.90
73643;DHT22;61938;48.652;9.292;2023-11-21T07:52:54;7.70;99.90
73643;DHT22;61938;48.652;9.292;2023-11-21T07:55:20;7.70;99.90
73643;DHT22;61938;48.652;9.292;2023-11-21T07:57:45;7.80;99.90
73643;DHT22;61938;48.652;9.292;2023-11-21T08:00:11;7.80;99.90
73643;DHT22;61938;48.652;9.292;2023-11-21T08:02:40;7.80;99.90
73643;DHT22;61938;48.652;9.292;2023-11-21T08:05:11;7.80;99.90
73643;DHT22;61938;48.652;9.292;2023-11-21T08:07:37;7.80;99.90
73643;DHT22;61938;48.652;9.292;2023-11-21T08:10:04;7.80;99.90
73643;DHT22;61938;48.652;9.292;2023-11-21T08:12:30;7.90;99.90
73643;DHT22;61938;48.652;9.292;2023-11-21T08:14:56;7.90;99.90
73643;DHT22;61938;48.652;9.292;2023-11-21T08:17:21;7.90;99.90
73643;DHT22;61938;48.652;9.292;2023-11-21T08:19:47;7.90;99.90
73643;DHT22;61938;48.652;9.292;2023-11-21T08:22:15;7.80;99.90
73643;DHT22;61938;48.652;9.292;2023-11-21T08:24:43;7.90;99.90
73643;DHT22;61938;48.652;9.292;2023-11-21T08:27:09;7.90;99.90
73643;DHT22;61938;48.652;9.292;2023-11-21T08:29:34;7.90;99.90
73643;DHT22;61938;48.652;9.292;2023-11-21T08:32:02;7.90;99.90
73643;DHT22;61938;48.652;9.292;2023-11-21T08:34:27;7.90;99.90
73643;DHT22;61938;48.652;9.292;2023-11-21T08:36:54;7.90;99.90
73643;DHT22;61938;48.652;9.292;2023-11-21T08:39:19;7.90;99.90
73643;DHT22;61938;48.652;9.292;2023-11-21T08:41:45;7.90;99.90
73643;DHT22;61938;48.652;9.292;2023-11-21T08:44:11;8.00;99.90
73643;DHT22;61938;48.652;9.292;2023-11-21T08:46:36;8.00;99.90
73643;DHT22;61938;48.652;9.292;2023-11-21T08:49:03;8.00;99.90
73643;DHT22;61938;48.652;9.292;2023-11-21T08:51:28;8.00;99.90
73643;DHT22;61938;48.652;9.292;2023-11-21T08:53:54;8.00;99.90
73643;DHT22;61938;48.652;9.292;2023-11-21T08:56:20;8.00;99.90
73643;DHT22;61938;48.652;9.292;2023-11-21T08:58:46;8.00;99.90
73643;DHT22;61938;48.652;9.292;2023-11-21T09:01:15;8.00;99.90
73643;DHT22;61938;48.652;9.292;2023-11-21T09:03:41;8.10;99.90
73643;DHT22;61938;48.652;9.292;2023-11-21T09:06:07;8.10;99.90
73643;DHT22;61938;48.652;9.292;2023-11-21T09:08:35;8.10;99.90
73643;DHT22;61938;48.652;9.292;2023-11-21T09:11:00;8.10;99.90
73643;DHT22;61938;48.652;9.292;2023-11-21T09:13:26;8.10;99.90
73643;DHT22;61938;48.652;9.292;2023-11-21T09:15:51;8.10;99.90
73643;DHT22;61938;48.652;9.292;2023-11-21T09:18:17;8.10;99.90
73643;DHT22;61938;48.652;9.292;2023-11-21T09:20:42;8.20;99.90
73643;DHT22;61938;48.652;9.292;2023-11-21T09:23:09;8.20;99.90
73643;DHT22;61938;48.652;9.292;2023-11-21T09:25:35;8.20;99.90
73643;DHT22;61938;48.652;9.292;2023-11-21T09:28:03;8.20;99.90
73643;DHT22;61938;48.652;9.292;2023-11-21T09:30:33;8.20;99.90
73643;DHT22;61938;48.652;9.292;2023-11-21T09:32:59;8.20;99.90
73643;DHT22;61938;48.652;9.292;2023-11-21T09:35:24;8.20;99.90
73643;DHT22;61938;48.652;9.292;2023-11-21T09:37:50;8.20;99.90
73643;DHT22;61938;48.652;9.292;2023-11-21T09:40:20;8.20;99.90
73643;DHT22;61938;48.652;9.292;2023-11-21T09:42:57;8.20;99.90
73643;DHT22;61938;48.652;9.292;2023-11-21T09:45:32;8.20;99.90
73643;DHT22;61938;48.652;9.292;2023-11-21T09:47:59;8.30;99.90
73643;DHT22;61938;48.652;9.292;2023-11-21T09:50:26;8.30;99.90
73643;DHT22;61938;48.652;9.292;2023-11-21T09:53:13;8.30;99.90
73643;DHT22;61938;48.652;9.292;2023-11-21T09:55:45;8.40;99.90
73643;DHT22;61938;48.652;9.292;2023-11-21T09:58:12;8.40;99.90
73643;DHT22;61938;48.652;9.292;2023-11-21T10:00:42;8.40;99.90
73643;DHT22;61938;48.652;9.292;2023-11-21T10:03:08;8.50;99.90
73643;DHT22;61938;48.652;9.292;2023-11-21T10:05:35;8.50;99.90
73643;DHT22;61938;48.652;9.292;2023-11-21T10:08:01;8.50;99.90
73643;DHT22;61938;48.652;9.292;2023-11-21T10:10:27;8.50;99.90
73643;DHT22;61938;48.652;9.292;2023-11-21T10:12:56;8.60;99.90
73643;DHT22;61938;48.652;9.292;2023-11-21T10:15:23;8.60;99.90
73643;DHT22;61938;48.652;9.292;2023-11-21T10:17:50;8.60;99.90
73643;DHT22;61938;48.652;9.292;2023-11-21T10:20:22;8.70;99.90
73643;DHT22;61938;48.652;9.292;2023-11-21T10:22:49;8.70;99.90
73643;DHT22;61938;48.652;9.292;2023-11-21T10:25:15;8.70;99.90
73643;DHT22;61938;48.652;9.292;2023-11-21T10:27:42;8.70;99.90
73643;DHT22;61938;48.652;9.292;2023-11-21T10:30:09;8.80;99.90
73643;DHT22;61938;48.652;9.292;2023-11-21T10:32:38;8.80;99.90
73643;DHT22;61938;48.652;9.292;2023-11-21T10:35:03;8.80;99.90
73643;DHT22;61938;48.652;9.292;2023-11-21T10:37:35;8.80;99.90
73643;DHT22;61938;48.652;9.292;2023-11-21T10:40:01;8.80;99.90
73643;DHT22;61938;48.652;9.292;2023-11-21T10:42:27;8.60;99.90
73643;DHT22;61938;48.652;9.292;2023-11-21T10:44:53;8.80;99.90
73643;DHT22;61938;48.652;9.292;2023-11-21T10:47:19;8.80;99.90
73643;DHT22;61938;48.652;9.292;2023-11-21T10:49:48;8.80;99.90
73643;DHT22;61938;48.652;9.292;2023-11-21T10:52:14;8.80;99.90
73643;DHT22;61938;48.652;9.292;2023-11-21T10:54:43;8.80;99.90
73643;DHT22;61938;48.652;9.292;2023-11-21T10:57:10;8.80;99.90
73643;DHT22;61938;48.652;9.292;2023-11-21T10:59:36;8.80;99.90
73643;DHT22;61938;48.652;9.292;2023-11-21T11:02:24;8.80;99.90
73643;DHT22;61938;48.652;9.292;2023-11-21T11:04:54;8.90;99.90
73643;DHT22;61938;48.652;9.292;2023-11-21T11:07:27;8.90;99.90
73643;DHT22;61938;48.652;9.292;2023-11-21T11:09:54;8.90;99.90
73643;DHT22;61938;48.652;9.292;2023-11-21T11:12:20;8.90;99.90
73643;DHT22;61938;48.652;9.292;2023-11-21T11:14:46;8.90;99.90
73643;DHT22;61938;48.652;9.292;2023-11-21T11:17:13;8.90;99.90
73643;DHT22;61938;48.652;9.292;2023-11-21T11:19:39;8.90;99.90
73643;DHT22;61938;48.652;9.292;2023-11-21T11:22:36;8.90;99.90
73643;DHT22;61938;48.652;9.292;2023-11-21T11:28:07;8.90;99.90
73643;DHT22;61938;48.652;9.292;2023-11-21T11:30:50;8.90;99.90
73643;DHT22;61938;48.652;9.292;2023-11-21T11:38:46;8.90;99.90
73643;DHT22;61938;48.652;9.292;2023-11-21T11:41:11;8.90;99.90
73643;DHT22;61938;48.652;9.292;2023-11-21T11:43:37;8.90;99.90
73643;DHT22;61938;48.652;9.292;2023-11-21T11:46:10;9.00;99.90
73643;DHT22;61938;48.652;9.292;2023-11-21T11:48:39;9.00;99.90
73643;DHT22;61938;48.652;9.292;2023-11-21T11:51:13;9.00;99.90
73643;DHT22;61938;48.652;9.292;2023-11-21T11:53:47;9.00;99.90
73643;DHT22;61938;48.652;9.292;2023-11-21T11:56:24;9.00;99.90
73643;DHT22;61938;48.652;9.292;2023-11-21T11:59:00;9.00;99.90
73643;DHT22;61938;48.652;9.292;2023-11-21T12:01:28;9.00;99.90
73643;DHT22;61938;48.652;9.292;2023-11-21T12:06:59;9.00;99.90
73643;DHT22;61938;48.652;9.292;2023-11-21T12:09:26;9.00;99.90
73643;DHT22;61938;48.652;9.292;2023-11-21T12:11:52;9.00;99.90
73643;DHT22;61938;48.652;9.292;2023-11-21T12:14:18;9.00;99.90
73643;DHT22;61938;48.652;9.292;2023-11-21T12:16:44;9.00;99.90
73643;DHT22;61938;48.652;9.292;2023-11-21T12:19:13;9.00;99.90
73643;DHT22;61938;48.652;9.292;2023-11-21T12:21:39;9.00;99.90
73643;DHT22;61938;48.652;9.292;2023-11-21T12:24:06;9.00;99.90
73643;DHT22;61938;48.652;9.292;2023-11-21T12:26:34;9.00;99.90
73643;DHT22;61938;48.652;9.292;2023-11-21T12:29:00;9.00;99.90
73643;DHT22;61938;48.652;9.292;2023-11-21T12:31:26;9.00;99.90
73643;DHT22;61938;48.652;9.292;2023-11-21T12:33:54;9.10;99.90
73643;DHT22;61938;48.652;9.292;2023-11-21T12:36:19;9.10;99.90
73643;DHT22;61938;48.652;9.292;2023-11-21T12:38:45;9.10;99.90
73643;DHT22;61938;48.652;9.292;2023-11-21T12:41:10;9.10;99.90
73643;DHT22;61938;48.652;9.292;2023-11-21T12:43:36;9.10;99.90
73643;DHT22;61938;48.652;9.292;2023-11-21T12:46:10;9.10;99.90
73643;DHT22;61938;48.652;9.292;2023-11-21T12:48:37;9.10;99.90
73643;DHT22;61938;48.652;9.292;2023-11-21T12:51:10;9.10;99.90
73643;DHT22;61938;48.652;9.292;2023-11-21T12:53:45;9.10;99.90
73643;DHT22;61938;48.652;9.292;2023-11-21T12:56:11;9.10;99.90
73643;DHT22;61938;48.652;9.292;2023-11-21T12:58:38;9.10;99.90
73643;DHT22;61938;48.652;9.292;2023-11-21T13:01:05;9.10;99.90
73643;DHT22;61938;48.652;9.292;2023-11-21T13:03:37;9.10;99.90
73643;DHT22;61938;48.652;9.292;2023-11-21T13:06:04;9.10;99.90
73643;DHT22;61938;48.652;9.292;2023-11-21T13:08:30;9.10;99.90
73643;DHT22;61938;48.652;9.292;2023-11-21T13:10:56;9.10;99.90
73643;DHT22;61938;48.652;9.292;2023-11-21T13:13:23;9.10;99.90
73643;DHT22;61938;48.652;9.292;2023-11-21T13:15:50;9.10;99.90
73643;DHT22;61938;48.652;9.292;2023-11-21T13:18:16;9.10;99.90
73643;DHT22;61938;48.652;9.292;2023-11-21T13:20:43;9.10;99.90
73643;DHT22;61938;48.652;9.292;2023-11-21T13:23:10;9.10;99.90
73643;DHT22;61938;48.652;9.292;2023-11-21T13:25:38;9.10;99.90
73643;DHT22;61938;48.652;9.292;2023-11-21T13:28:06;9.10;99.90
73643;DHT22;61938;48.652;9.292;2023-11-21T13:30:32;9.10;99.90
73643;DHT22;61938;48.652;9.292;2023-11-21T13:33:01;9.10;99.90
73643;DHT22;61938;48.652;9.292;2023-11-21T13:35:28;9.10;99.90
73643;DHT22;61938;48.652;9.292;2023-11-21T13:38:10;9.20;99.90
73643;DHT22;61938;48.652;9.292;2023-11-21T13:40:38;9.20;99.90
73643;DHT22;61938;48.652;9.292;2023-11-21T13:43:16;9.10;99.90
73643;DHT22;61938;48.652;9.292;2023-11-21T13:45:44;9.20;99.90
73643;DHT22;61938;48.652;9.292;2023-11-21T13:48:12;9.20;99.90
73643;DHT22;61938;48.652;9.292;2023-11-21T13:50:45;9.20;99.90
73643;DHT22;61938;48.652;9.292;2023-11-21T13:53:14;9.20;99.90
73643;DHT22;61938;48.652;9.292;2023-11-21T13:55:48;9.20;99.90
73643;DHT22;61938;48.652;9.292;2023-11-21T13:58:14;9.20;99.90
73643;DHT22;61938;48.652;9.292;2023-11-21T14:00:45;9.20;99.90
73643;DHT22;61938;48.652;9.292;2023-11-21T14:03:12;9.30;99.90
73643;DHT22;61938;48.652;9.292;2023-11-21T14:05:50;9.20;99.90
73643;DHT22;61938;48.652;9.292;2023-11-21T14:08:21;9.30;99.90
73643;DHT22;61938;48.652;9.292;2023-11-21T14:10:49;9.30;99.90
73643;DHT22;61938;48.652;9.292;2023-11-21T14:13:28;9.30;99.90
73643;DHT22;61938;48.652;9.292;2023-11-21T14:15:53;9.30;99.90
73643;DHT22;61938;48.652;9.292;2023-11-21T14:18:27;9.30;99.90
73643;DHT22;61938;48.652;9.292;2023-11-21T14:21:01;9.30;99.90
73643;DHT22;61938;48.652;9.292;2023-11-21T14:23:27;9.30;99.90
73643;DHT22;61938;48.652;9.292;2023-11-21T14:25:53;9.30;99.90
73643;DHT22;61938;48.652;9.292;2023-11-21T14:28:19;9.30;99.90
73643;DHT22;61938;48.652;9.292;2023-11-21T14:30:46;9.30;99.90
73643;DHT22;61938;48.652;9.292;2023-11-21T14:33:12;9.30;99.90
73643;DHT22;61938;48.652;9.292;2023-11-21T14:35:37;9.20;99.90
73643;DHT22;61938;48.652;9.292;2023-11-21T14:38:03;9.20;99.90
73643;DHT22;61938;48.652;9.292;2023-11-21T14:40:31;9.20;99.90
73643;DHT22;61938;48.652;9.292;2023-11-21T14:43:00;9.20;99.90
73643;DHT22;61938;48.652;9.292;2023-11-21T14:45:25;9.20;99.90
73643;DHT22;61938;48.652;9.292;2023-11-21T14:47:52;9.20;99.90
73643;DHT22;61938;48.652;9.292;2023-11-21T14:50:36;9.10;99.90
73643;DHT22;61938;48.652;9.292;2023-11-21T14:53:11;9.10;99.90
73643;DHT22;61938;48.652;9.292;2023-11-21T14:55:38;9.10;99.90
73643;DHT22;61938;48.652;9.292;2023-11-21T14:58:18;9.10;99.90
73643;DHT22;61938;48.652;9.292;2023-11-21T15:00:56;9.10;99.90
73643;DHT22;61938;48.652;9.292;2023-11-21T15:03:26;9.00;99.90
73643;DHT22;61938;48.652;9.292;2023-11-21T15:06:01;9.00;99.90
73643;DHT22;61938;48.652;9.292;2023-11-21T15:08:44;9.00;99.90
73643;DHT22;61938;48.652;9.292;2023-11-21T15:11:11;9.00;99.90
73643;DHT22;61938;48.652;9.292;2023-11-21T15:13:41;8.90;99.90
73643;DHT22;61938;48.652;9.292;2023-11-21T15:16:08;8.90;99.90
73643;DHT22;61938;48.652;9.292;2023-11-21T15:18:34;8.90;99.90
73643;DHT22;61938;48.652;9.292;2023-11-21T15:21:01;8.90;99.90
73643;DHT22;61938;48.652;9.292;2023-11-21T15:23:28;8.90;99.90
73643;DHT22;61938;48.652;9.292;2023-11-21T15:25:56;8.90;99.90
73643;DHT22;61938;48.652;9.292;2023-11-21T15:28:21;8.90;99.90
73643;DHT22;61938;48.652;9.292;2023-11-21T15:30:47;8.80;99.90
73643;DHT22;61938;48.652;9.292;2023-11-21T15:33:16;8.80;99.90
73643;DHT22;61938;48.652;9.292;2023-11-21T15:35:42;8.80;99.90
73643;DHT22;61938;48.652;9.292;2023-11-21T15:38:08;8.80;99.90
73643;DHT22;61938;48.652;9.292;2023-11-21T15:40:34;8.80;99.90
73643;DHT22;61938;48.652;9.292;2023-11-21T15:42:59;8.80;99.90
73643;DHT22;61938;48.652;9.292;2023-11-21T15:45:25;8.80;99.90
73643;DHT22;61938;48.652;9.292;2023-11-21T15:47:51;8.80;99.90
73643;DHT22;61938;48.652;9.292;2023-11-21T15:50:18;8.80;99.90
73643;DHT22;61938;48.652;9.292;2023-11-21T15:52:43;8.80;99.90
73643;DHT22;61938;48.652;9.292;2023-11-21T15:55:10;8.80;99.90
73643;DHT22;61938;48.652;9.292;2023-11-21T15:57:36;8.80;99.90